Accueil
METAR-TAF:

METAR-TAF

Aéroports :

Quimper, France

Aéroport de Quimper Bretagne, Pluguffan

latitude: 47-58N, longitude: 004-10W, altitude: 92 m

Observation

Le bulletin a été fait il y a 31 minutes, à 00:00 UTC
Vent 5 kt de est
Température -1°C
Humidité 74%
Pression 1013 hPa
Visibilité 10 km ou plus
pas de nuages en-dessous de 1500 mètres et pas de cumulonimbus.

METAR: LFRQ 240000Z AUTO 08005KT CAVOK M01/M05 Q1013

Heure: 01:31 (00:31 UTC)

Prévision

Le bulletin a été fait il y a 7 heures et 31 minutes, à 17:00 UTC
Prévision valable du 23 à 18 UTC au 24 à 03 UTC
Vent 6 kt de est/nord-est
Visibilité 10 km ou plus
pas de nuages en-dessous de 1500 mètres et pas de cumulonimbus.

TAF: LFRQ 231700Z 2318/2403 07006KT CAVOK

Observations et prévisions météorologiques de plus de 4000 aéroports (messages METAR et TAF).

Les stations disponibles sont représentées par des disques jaunes et rouges sur la carte.

Passer la souris dessus pour voir le nom de la station.

Cliquer dessus pour voir les observations et prévisions météorologiques.

Pour changer de carte: cliquez sur les boutons verts avec une croix noire pour zoomer, sur le bouton vert avec un tiret pour effectuer un zoom arrière, ou sur les flèches vertes pour les cartes adjacentes.


METAR-TAF: